createdAt,value
2022-09-27T00:01:13.720Z,96311.28
2022-09-27T00:03:42.351Z,96309.53
2022-09-27T00:06:14.642Z,96302.59
2022-09-27T00:08:43.530Z,96297.50
2022-09-27T00:11:18.795Z,96304.34
2022-09-27T00:13:47.393Z,96301.78
2022-09-27T00:16:15.922Z,96297.50
2022-09-27T00:18:44.314Z,96292.59
2022-09-27T00:21:14.585Z,96295.19
2022-09-27T00:23:43.212Z,96285.59
2022-09-27T00:26:14.957Z,96281.44
2022-09-27T00:28:43.694Z,96273.69
2022-09-27T00:31:18.149Z,96277.53
2022-09-27T00:33:46.412Z,96274.06
2022-09-27T00:36:14.694Z,96271.59
2022-09-27T00:38:43.355Z,96263.00
2022-09-27T00:41:16.818Z,96266.19
2022-09-27T00:43:48.718Z,96254.41
2022-09-27T00:46:22.251Z,96258.69
2022-09-27T00:49:01.551Z,96257.38
2022-09-27T00:51:30.258Z,96256.81
2022-09-27T00:53:59.441Z,96256.81
2022-09-27T00:56:31.052Z,96251.81
2022-09-27T00:59:02.763Z,96250.88
2022-09-27T01:01:31.748Z,96250.72
2022-09-27T01:04:03.318Z,96254.97
2022-09-27T01:06:32.076Z,96255.91
2022-09-27T01:09:00.533Z,96250.81
2022-09-27T01:11:37.907Z,96243.03
2022-09-27T01:14:14.731Z,96236.00
2022-09-27T01:16:46.645Z,96232.66
2022-09-27T01:19:25.012Z,96233.03
2022-09-27T01:21:58.051Z,96218.59
2022-09-27T01:24:52.433Z,96220.41
2022-09-27T01:27:57.273Z,96214.41
2022-09-27T01:30:29.292Z,96202.41
2022-09-27T01:33:10.494Z,96206.03
2022-09-27T01:35:45.628Z,96195.88
2022-09-27T01:38:19.044Z,96184.69
2022-09-27T01:40:52.582Z,96185.38
2022-09-27T01:43:44.241Z,96177.56
2022-09-27T01:46:17.113Z,96171.59
2022-09-27T01:49:09.952Z,96171.53
2022-09-27T01:51:41.283Z,96160.97
2022-09-27T01:54:13.775Z,96169.50
2022-09-27T01:57:01.797Z,96161.56
2022-09-27T01:59:39.708Z,96160.41
2022-09-27T02:02:24.783Z,96154.91
2022-09-27T02:05:28.653Z,96159.06
2022-09-27T02:08:04.079Z,96151.38
2022-09-27T02:10:35.360Z,96146.81
2022-09-27T02:13:22.447Z,96146.75
2022-09-27T02:16:00.099Z,96146.75
2022-09-27T02:18:48.799Z,96158.78
2022-09-27T02:21:18.177Z,96147.81
2022-09-27T02:23:49.144Z,96155.59
2022-09-27T02:26:20.179Z,96150.56
2022-09-27T02:28:52.994Z,96157.00
2022-09-27T02:31:28.533Z,96151.59
2022-09-27T02:34:02.627Z,96150.75
2022-09-27T02:36:31.409Z,96149.72
2022-09-27T02:39:00.330Z,96145.34
2022-09-27T02:41:30.086Z,96149.72
2022-09-27T02:44:01.313Z,96150.47
2022-09-27T02:46:50.758Z,96141.00
2022-09-27T02:49:31.204Z,96148.72
2022-09-27T02:52:35.658Z,96146.06
2022-09-27T02:55:10.488Z,96146.06
2022-09-27T02:58:06.335Z,96132.03
2022-09-27T03:00:50.475Z,96137.59
2022-09-27T03:03:45.100Z,96136.75
2022-09-27T03:06:16.298Z,96127.31
2022-09-27T03:08:45.301Z,96125.56
2022-09-27T03:11:13.583Z,96118.69
2022-09-27T03:14:06.889Z,96122.16
2022-09-27T03:16:30.140Z,96117.88
2022-09-27T03:19:24.687Z,96114.25
2022-09-27T03:22:14.334Z,96103.25
2022-09-27T03:24:43.065Z,96099.72
2022-09-27T03:27:11.439Z,96088.47
2022-09-27T03:29:39.698Z,96086.69
2022-09-27T03:32:10.820Z,96074.59
2022-09-27T03:35:08.854Z,96073.63
2022-09-27T03:37:38.735Z,96065.66
2022-09-27T03:40:08.686Z,96055.25
2022-09-27T03:42:37.075Z,96051.00
2022-09-27T03:45:05.927Z,96049.50
2022-09-27T03:47:34.160Z,96039.84
2022-09-27T03:50:02.603Z,96043.25
2022-09-27T03:52:30.854Z,96040.69
2022-09-27T03:55:02.358Z,96046.41
2022-09-27T03:57:32.181Z,96038.66
2022-09-27T04:00:00.724Z,96041.25
2022-09-27T04:02:41.205Z,96040.59
2022-09-27T04:05:30.482Z,96042.72
2022-09-27T04:08:03.312Z,96036.94
2022-09-27T04:10:36.895Z,96038.16
2022-09-27T04:13:05.974Z,96025.28
2022-09-27T04:15:40.458Z,96025.41
2022-09-27T04:18:41.020Z,96026.34
2022-09-27T04:21:38.410Z,96029.69
2022-09-27T04:24:08.365Z,96025.47
2022-09-27T04:26:40.027Z,96016.53
2022-09-27T04:29:12.750Z,96012.56
2022-09-27T04:31:48.070Z,96006.72
2022-09-27T04:35:03.011Z,96010.06
2022-09-27T04:37:31.521Z,96004.91
2022-09-27T04:40:03.516Z,95991.72
2022-09-27T04:42:34.175Z,95984.19
2022-09-27T04:45:02.391Z,95985.16
2022-09-27T04:47:30.932Z,95972.56
2022-09-27T04:49:59.253Z,95968.06
2022-09-27T04:52:28.090Z,95966.97
2022-09-27T04:54:56.328Z,95967.91
2022-09-27T04:57:24.876Z,95973.81
2022-09-27T04:59:54.523Z,95974.03
2022-09-27T05:02:22.833Z,95965.22
2022-09-27T05:05:17.646Z,95956.44
2022-09-27T05:07:46.177Z,95957.44
2022-09-27T05:10:26.312Z,95960.66
2022-09-27T05:12:54.726Z,95961.50
2022-09-27T05:15:25.638Z,95959.09
2022-09-27T05:18:12.244Z,95955.03
2022-09-27T05:20:40.534Z,95962.03
2022-09-27T05:23:18.485Z,95958.41
2022-09-27T05:25:46.797Z,95959.97
2022-09-27T05:28:15.235Z,95961.34
2022-09-27T05:30:45.790Z,95968.22
2022-09-27T05:33:20.195Z,95966.63
2022-09-27T05:35:53.378Z,95957.91
2022-09-27T05:38:24.265Z,95960.59
2022-09-27T05:40:55.798Z,95958.13
2022-09-27T05:43:25.522Z,95955.78
2022-09-27T05:45:56.053Z,95953.69
2022-09-27T05:48:24.898Z,95958.94
2022-09-27T05:51:02.423Z,95955.63
2022-09-27T05:53:33.072Z,95957.06
2022-09-27T05:56:04.583Z,95947.41
2022-09-27T05:59:00.112Z,95957.44
2022-09-27T06:01:37.330Z,95954.00
2022-09-27T06:04:25.692Z,95956.72
2022-09-27T06:07:13.844Z,95950.63
2022-09-27T06:09:44.332Z,95941.22
2022-09-27T06:12:14.431Z,95939.56
2022-09-27T06:14:42.838Z,95940.34
2022-09-27T06:17:17.444Z,95950.72
2022-09-27T06:19:47.771Z,95948.72
2022-09-27T06:22:16.886Z,95941.56
2022-09-27T06:25:04.063Z,95937.03
2022-09-27T06:27:35.553Z,95937.94
2022-09-27T06:30:14.873Z,95939.53
2022-09-27T06:32:59.245Z,95933.97
2022-09-27T06:35:33.359Z,95935.72
2022-09-27T06:38:05.021Z,95944.84
2022-09-27T06:40:33.961Z,95947.59
2022-09-27T06:43:33.207Z,95945.97
2022-09-27T06:46:15.992Z,95934.66
2022-09-27T06:49:05.252Z,95943.69
2022-09-27T06:51:34.283Z,95934.16
2022-09-27T06:54:02.572Z,95938.13
2022-09-27T06:56:30.872Z,95929.75
2022-09-27T06:59:17.344Z,95933.06
2022-09-27T07:01:46.404Z,95929.28
2022-09-27T07:04:18.926Z,95935.94
2022-09-27T07:06:59.250Z,95943.38
2022-09-27T07:09:32.326Z,95939.56
2022-09-27T07:12:00.826Z,95939.34
2022-09-27T07:14:30.346Z,95939.97
2022-09-27T07:16:58.631Z,95937.75
2022-09-27T07:19:30.481Z,95937.03
2022-09-27T07:21:58.854Z,95948.00
2022-09-27T07:24:27.122Z,95945.09
2022-09-27T07:26:55.598Z,95950.88
2022-09-27T07:29:24.788Z,95961.53
2022-09-27T07:31:55.018Z,95968.28
2022-09-27T07:34:24.052Z,95961.56
2022-09-27T07:36:55.196Z,95961.25
2022-09-27T07:39:23.558Z,95975.81
2022-09-27T07:41:52.419Z,95979.66
2022-09-27T07:44:20.726Z,95988.25
2022-09-27T07:47:08.230Z,95994.38
2022-09-27T07:50:04.816Z,95987.59
2022-09-27T07:52:51.281Z,95983.34
2022-09-27T07:55:52.036Z,95979.25
2022-09-27T07:58:22.988Z,95984.16
2022-09-27T08:00:54.609Z,95987.69
2022-09-27T08:03:23.118Z,95983.22
2022-09-27T08:05:51.708Z,95991.06
2022-09-27T08:08:22.463Z,95991.50
2022-09-27T08:10:52.328Z,95997.84
2022-09-27T08:13:21.540Z,95992.38
2022-09-27T08:15:54.007Z,95999.72
2022-09-27T08:18:25.208Z,95991.47
2022-09-27T08:20:58.138Z,95992.81
2022-09-27T08:23:55.130Z,95995.13
2022-09-27T08:26:30.699Z,95989.00
2022-09-27T08:29:10.888Z,95989.84
2022-09-27T08:31:44.219Z,95997.03
2022-09-27T08:34:13.130Z,95999.38
2022-09-27T08:36:41.428Z,95994.72
2022-09-27T08:39:11.385Z,95994.66
2022-09-27T08:41:49.471Z,95995.84
2022-09-27T08:44:24.747Z,95995.19
2022-09-27T08:47:16.797Z,95991.31
2022-09-27T08:49:50.739Z,95993.78
2022-09-27T08:52:22.013Z,95987.53
2022-09-27T08:54:52.205Z,95988.72
2022-09-27T08:57:20.987Z,95986.91
2022-09-27T08:59:54.555Z,95985.44
2022-09-27T09:02:24.776Z,95984.75
2022-09-27T09:04:55.999Z,95992.53
2022-09-27T09:07:40.593Z,95988.78
2022-09-27T09:10:38.056Z,95982.41
2022-09-27T09:13:11.852Z,95982.94
2022-09-27T09:15:56.628Z,95973.09
2022-09-27T09:18:39.804Z,95977.75
2022-09-27T09:21:23.390Z,95991.31
2022-09-27T09:24:16.516Z,95985.56
2022-09-27T09:26:49.924Z,95979.53
2022-09-27T09:29:28.153Z,95976.91
2022-09-27T09:32:00.176Z,95974.69
2022-09-27T09:34:32.956Z,95980.06
2022-09-27T09:37:04.179Z,95983.97
2022-09-27T09:39:36.215Z,95992.84
2022-09-27T09:42:10.012Z,95980.63
2022-09-27T09:44:45.243Z,95989.91
2022-09-27T09:47:20.330Z,95992.81
2022-09-27T09:49:53.302Z,95988.84
2022-09-27T09:52:25.009Z,95991.53
2022-09-27T09:54:56.266Z,95990.63
2022-09-27T09:57:28.907Z,95992.66
2022-09-27T09:59:59.898Z,95992.91
2022-09-27T10:02:33.572Z,95999.03
2022-09-27T10:05:12.407Z,96003.16
2022-09-27T10:07:41.531Z,96008.53
2022-09-27T10:10:14.111Z,96006.25
2022-09-27T10:12:50.052Z,96008.06
2022-09-27T10:15:22.613Z,96014.16
2022-09-27T10:17:54.074Z,96001.09
2022-09-27T10:20:30.225Z,95998.59
2022-09-27T10:23:05.398Z,95991.53
2022-09-27T10:25:53.343Z,95980.59
2022-09-27T10:28:39.375Z,95975.53
2022-09-27T10:31:09.631Z,95970.38
2022-09-27T10:33:53.773Z,95979.38
2022-09-27T10:36:26.516Z,95976.84
2022-09-27T10:38:56.077Z,95973.56
2022-09-27T10:41:36.761Z,95986.19
2022-09-27T10:44:27.377Z,95997.38
2022-09-27T10:47:23.888Z,96013.00
2022-09-27T10:50:06.890Z,96023.16
2022-09-27T10:53:05.474Z,96011.94
2022-09-27T10:55:35.935Z,96022.81
2022-09-27T10:58:05.218Z,96019.97
2022-09-27T11:00:36.629Z,96024.66
2022-09-27T11:03:08.947Z,96022.50
2022-09-27T11:05:39.979Z,96029.25
2022-09-27T11:08:24.424Z,96032.19
2022-09-27T11:11:06.692Z,96024.09
2022-09-27T11:13:37.977Z,96025.56
2022-09-27T11:16:22.594Z,96019.59
2022-09-27T11:19:03.003Z,96012.72
2022-09-27T11:21:36.926Z,96023.44
2022-09-27T11:24:17.684Z,96011.16
2022-09-27T11:26:54.060Z,96013.91
2022-09-27T11:29:28.153Z,96008.56
2022-09-27T11:32:46.474Z,96000.78
2022-09-27T11:35:47.284Z,95998.63
2022-09-27T11:38:40.888Z,95992.31
2022-09-27T11:41:22.948Z,95996.13
2022-09-27T11:44:24.365Z,95989.25
2022-09-27T11:47:00.801Z,95991.06
2022-09-27T11:49:57.581Z,95976.31
2022-09-27T11:52:37.822Z,95970.94
2022-09-27T11:55:16.688Z,95972.31
2022-09-27T11:57:49.997Z,95975.34
2022-09-27T12:00:21.726Z,95971.91
2022-09-27T12:03:22.291Z,95968.91
2022-09-27T12:06:07.268Z,95967.72
2022-09-27T12:08:54.642Z,95970.00
2022-09-27T12:11:26.673Z,95974.69
2022-09-27T12:13:59.110Z,95962.50
2022-09-27T12:16:28.617Z,95953.81
2022-09-27T12:18:57.588Z,95956.66
2022-09-27T12:21:47.559Z,95970.69
2022-09-27T12:24:21.284Z,95969.84
2022-09-27T12:27:11.853Z,95978.88
2022-09-27T12:29:41.952Z,95985.34
2022-09-27T12:32:15.293Z,95987.00
2022-09-27T12:34:47.171Z,95982.84
2022-09-27T12:37:20.988Z,95989.72
2022-09-27T12:39:53.241Z,95991.53
2022-09-27T12:42:27.467Z,95996.91
2022-09-27T12:45:01.113Z,96004.47
2022-09-27T12:47:38.196Z,95997.50
2022-09-27T12:50:17.085Z,96009.53
2022-09-27T12:52:51.130Z,96013.84
2022-09-27T12:55:44.142Z,96001.00
2022-09-27T12:58:49.600Z,96006.94
2022-09-27T13:01:29.161Z,96004.28
2022-09-27T13:04:15.881Z,96003.34
2022-09-27T13:06:59.482Z,95991.44
2022-09-27T13:09:51.356Z,95992.22
2022-09-27T13:12:22.127Z,95996.00
2022-09-27T13:14:58.831Z,96002.44
2022-09-27T13:17:50.110Z,95998.88
2022-09-27T13:20:44.415Z,95998.72
2022-09-27T13:23:51.550Z,96004.81
2022-09-27T13:26:44.529Z,95996.41
2022-09-27T13:29:29.534Z,95998.84
2022-09-27T13:32:23.688Z,95995.19
2022-09-27T13:35:21.789Z,95998.50
2022-09-27T13:37:59.559Z,96000.78
2022-09-27T13:40:45.500Z,96001.75
2022-09-27T13:43:41.661Z,95998.72
2022-09-27T13:46:30.977Z,95996.31
2022-09-27T13:49:04.840Z,96002.69
2022-09-27T13:52:20.870Z,96001.03
2022-09-27T13:54:59.188Z,95996.38
2022-09-27T13:57:43.414Z,95998.31
2022-09-27T14:00:19.895Z,95998.84
2022-09-27T14:03:07.355Z,95999.97
2022-09-27T14:05:40.846Z,96001.78
2022-09-27T14:08:21.369Z,95998.84
2022-09-27T14:10:50.763Z,95996.25
2022-09-27T14:13:21.498Z,95996.16
2022-09-27T14:16:03.073Z,95994.88
2022-09-27T14:18:31.673Z,96011.09
2022-09-27T14:21:13.269Z,96016.66
2022-09-27T14:24:24.900Z,96000.13
2022-09-27T14:27:11.564Z,96006.03
2022-09-27T14:29:44.927Z,96016.16
2022-09-27T14:32:18.859Z,96021.66
2022-09-27T14:35:06.368Z,96024.56
2022-09-27T14:37:36.453Z,96023.69
2022-09-27T14:40:20.449Z,96025.31
2022-09-27T14:42:49.583Z,96036.97
2022-09-27T14:45:22.925Z,96032.03
2022-09-27T14:47:52.851Z,96032.97
2022-09-27T14:50:23.876Z,96045.47
2022-09-27T14:52:55.839Z,96051.97
2022-09-27T14:55:25.688Z,96059.22
2022-09-27T14:57:55.573Z,96072.56
2022-09-27T15:00:26.604Z,96070.59
2022-09-27T15:02:59.125Z,96087.25
2022-09-27T15:05:29.646Z,96092.88
2022-09-27T15:07:59.565Z,96091.34
2022-09-27T15:10:31.472Z,96092.25
2022-09-27T15:13:01.580Z,96090.94
2022-09-27T15:15:32.797Z,96095.75
2022-09-27T15:18:03.630Z,96099.34
2022-09-27T15:20:35.131Z,96108.09
2022-09-27T15:23:06.587Z,96114.91
2022-09-27T15:25:36.772Z,96119.25
2022-09-27T15:28:06.922Z,96119.38
2022-09-27T15:30:36.870Z,96128.84
2022-09-27T15:33:07.420Z,96122.22
2022-09-27T15:35:36.821Z,96123.34
2022-09-27T15:38:32.740Z,96130.16
2022-09-27T15:41:05.564Z,96124.72
2022-09-27T15:43:37.161Z,96125.75
2022-09-27T15:46:09.753Z,96123.25
2022-09-27T15:48:42.208Z,96130.34
2022-09-27T15:51:40.819Z,96130.75
2022-09-27T15:54:09.675Z,96127.25
2022-09-27T15:56:40.479Z,96132.56
2022-09-27T15:59:14.406Z,96132.56
2022-09-27T16:01:43.118Z,96134.53
2022-09-27T16:04:13.024Z,96141.28
2022-09-27T16:06:42.899Z,96138.50
2022-09-27T16:09:17.861Z,96135.25
2022-09-27T16:11:46.752Z,96141.06
2022-09-27T16:14:18.441Z,96147.53
2022-09-27T16:16:50.256Z,96144.34
2022-09-27T16:19:23.395Z,96145.91
2022-09-27T16:21:52.540Z,96128.03
2022-09-27T16:24:21.470Z,96110.59
2022-09-27T16:26:51.020Z,96109.31
2022-09-27T16:29:21.911Z,96122.50
2022-09-27T16:31:53.892Z,96130.97
2022-09-27T16:34:26.588Z,96131.84
2022-09-27T16:36:55.786Z,96142.66
2022-09-27T16:39:24.334Z,96145.03
2022-09-27T16:41:54.803Z,96144.09
2022-09-27T16:44:23.274Z,96159.16
2022-09-27T16:46:51.793Z,96161.13
2022-09-27T16:49:37.417Z,96166.31
2022-09-27T16:52:07.233Z,96184.44
2022-09-27T16:54:35.604Z,96180.19
2022-09-27T16:57:05.078Z,96185.81
2022-09-27T16:59:33.583Z,96186.59
2022-09-27T17:02:02.217Z,96195.91
2022-09-27T17:04:30.725Z,96195.22
2022-09-27T17:06:59.552Z,96200.91
2022-09-27T17:09:29.323Z,96205.31
2022-09-27T17:11:57.706Z,96211.50
2022-09-27T17:14:27.256Z,96225.78
2022-09-27T17:16:55.511Z,96218.31
2022-09-27T17:19:24.058Z,96217.94
2022-09-27T17:21:53.008Z,96216.28
2022-09-27T17:24:21.700Z,96209.53
2022-09-27T17:26:52.505Z,96217.53
2022-09-27T17:29:21.220Z,96211.78
2022-09-27T17:31:50.452Z,96219.69
2022-09-27T17:34:19.158Z,96218.22
2022-09-27T17:36:50.464Z,96215.78
2022-09-27T17:39:22.565Z,96219.38
2022-09-27T17:41:52.723Z,96220.19
2022-09-27T17:44:22.050Z,96221.75
2022-09-27T17:47:11.613Z,96226.69
2022-09-27T17:49:58.714Z,96220.66
2022-09-27T17:52:28.935Z,96227.66
2022-09-27T17:54:58.621Z,96232.97
2022-09-27T17:57:28.541Z,96244.16
2022-09-27T17:59:58.010Z,96246.09
2022-09-27T18:02:26.771Z,96248.72
2022-09-27T18:04:55.239Z,96250.38
2022-09-27T18:07:23.715Z,96243.69
2022-09-27T18:09:52.534Z,96252.41
2022-09-27T18:12:22.310Z,96248.25
2022-09-27T18:14:52.106Z,96251.84
2022-09-27T18:17:21.649Z,96243.28
2022-09-27T18:19:50.023Z,96231.16
2022-09-27T18:22:18.487Z,96227.56
2022-09-27T18:24:46.929Z,96227.66
2022-09-27T18:27:18.570Z,96238.09
2022-09-27T18:29:47.238Z,96247.44
2022-09-27T18:32:16.973Z,96253.34
2022-09-27T18:34:45.427Z,96260.81
2022-09-27T18:37:13.838Z,96263.59
2022-09-27T18:39:42.383Z,96275.50
2022-09-27T18:42:10.915Z,96275.50
2022-09-27T18:44:39.686Z,96277.88
2022-09-27T18:47:08.184Z,96288.06
2022-09-27T18:49:38.292Z,96279.91
2022-09-27T18:52:07.650Z,96272.25
2022-09-27T18:54:38.784Z,96285.47
2022-09-27T18:57:07.646Z,96287.00
2022-09-27T18:59:36.461Z,96293.31
2022-09-27T19:02:04.948Z,96289.16
2022-09-27T19:04:33.913Z,96294.47
2022-09-27T19:07:04.237Z,96288.88
2022-09-27T19:09:32.709Z,96298.56
2022-09-27T19:12:01.332Z,96297.84
2022-09-27T19:14:30.200Z,96297.91
2022-09-27T19:16:58.666Z,96305.88
2022-09-27T19:19:27.326Z,96306.13
2022-09-27T19:21:56.501Z,96315.88
2022-09-27T19:24:26.868Z,96313.38
2022-09-27T19:26:58.708Z,96314.13
2022-09-27T19:29:27.651Z,96315.97
2022-09-27T19:31:56.309Z,96313.66
2022-09-27T19:34:24.713Z,96309.41
2022-09-27T19:36:53.117Z,96301.69
2022-09-27T19:39:22.616Z,96310.19
2022-09-27T19:41:52.432Z,96311.88
2022-09-27T19:44:20.715Z,96312.06
2022-09-27T19:46:49.355Z,96315.72
2022-09-27T19:49:19.231Z,96317.53
2022-09-27T19:51:47.999Z,96317.44
2022-09-27T19:54:16.554Z,96314.03
2022-09-27T19:56:44.892Z,96316.09
2022-09-27T19:59:14.830Z,96310.22
2022-09-27T20:01:44.235Z,96307.94
2022-09-27T20:04:13.039Z,96305.84
2022-09-27T20:06:41.645Z,96313.34
2022-09-27T20:09:10.933Z,96312.44
2022-09-27T20:11:39.223Z,96311.03
2022-09-27T20:14:08.173Z,96310.38
2022-09-27T20:16:41.399Z,96308.22
2022-09-27T20:19:11.478Z,96303.38
2022-09-27T20:21:39.892Z,96309.91
2022-09-27T20:24:08.100Z,96309.88
2022-09-27T20:26:38.390Z,96305.94
2022-09-27T20:29:07.931Z,96303.03
2022-09-27T20:31:56.976Z,96313.41
2022-09-27T20:34:29.651Z,96310.91
2022-09-27T20:36:57.811Z,96304.88
2022-09-27T20:39:26.030Z,96314.50
2022-09-27T20:41:54.310Z,96318.59
2022-09-27T20:44:22.834Z,96312.44
2022-09-27T20:46:52.463Z,96312.34
2022-09-27T20:49:20.904Z,96319.50
2022-09-27T20:51:49.732Z,96317.75
2022-09-27T20:54:18.480Z,96321.16
2022-09-27T20:56:48.034Z,96317.59
2022-09-27T20:59:18.381Z,96312.94
2022-09-27T21:01:49.103Z,96305.31
2022-09-27T21:04:20.117Z,96292.00
2022-09-27T21:06:49.066Z,96290.78
2022-09-27T21:09:19.171Z,96292.56
2022-09-27T21:11:48.147Z,96299.59
2022-09-27T21:14:16.486Z,96288.66
2022-09-27T21:16:44.914Z,96292.28
2022-09-27T21:19:13.546Z,96296.72
2022-09-27T21:21:43.516Z,96304.69
2022-09-27T21:24:11.945Z,96313.28
2022-09-27T21:26:40.179Z,96313.41
2022-09-27T21:29:10.393Z,96316.09
2022-09-27T21:31:39.006Z,96306.00
2022-09-27T21:34:07.687Z,96309.47
2022-09-27T21:36:37.110Z,96318.00
2022-09-27T21:39:08.630Z,96314.09
2022-09-27T21:41:37.488Z,96317.22
2022-09-27T21:44:06.597Z,96316.75
2022-09-27T21:46:35.560Z,96321.19
2022-09-27T21:49:03.813Z,96316.38
2022-09-27T21:51:33.749Z,96322.94
2022-09-27T21:54:03.153Z,96323.22
2022-09-27T21:56:34.525Z,96323.28
2022-09-27T21:59:03.248Z,96323.22
2022-09-27T22:01:33.200Z,96318.38
2022-09-27T22:04:03.041Z,96304.69
2022-09-27T22:06:33.291Z,96320.09
2022-09-27T22:09:03.104Z,96319.22
2022-09-27T22:11:34.387Z,96325.09
2022-09-27T22:14:02.671Z,96337.03
2022-09-27T22:16:31.230Z,96337.44
2022-09-27T22:19:00.120Z,96329.81
2022-09-27T22:21:29.723Z,96341.84
2022-09-27T22:24:00.990Z,96346.22
2022-09-27T22:26:34.432Z,96337.88
2022-09-27T22:29:02.692Z,96333.72
2022-09-27T22:31:30.961Z,96332.78
2022-09-27T22:34:00.777Z,96342.63
2022-09-27T22:36:29.667Z,96334.84
2022-09-27T22:38:58.283Z,96324.28
2022-09-27T22:41:27.015Z,96309.00
2022-09-27T22:43:57.423Z,96299.13
2022-09-27T22:46:26.062Z,96294.31
2022-09-27T22:48:55.829Z,96298.47
2022-09-27T22:51:24.122Z,96297.78
2022-09-27T22:53:52.598Z,96300.63
2022-09-27T22:56:21.885Z,96297.44
2022-09-27T22:58:50.877Z,96286.88
2022-09-27T23:01:21.874Z,96286.69
2022-09-27T23:03:51.752Z,96292.91
2022-09-27T23:06:21.289Z,96297.22
2022-09-27T23:08:50.385Z,96306.88
2022-09-27T23:11:19.695Z,96322.81
2022-09-27T23:13:49.053Z,96324.63
2022-09-27T23:16:19.486Z,96323.63
2022-09-27T23:18:50.249Z,96325.31
2022-09-27T23:21:18.477Z,96331.75
2022-09-27T23:23:47.628Z,96323.72
2022-09-27T23:26:17.422Z,96321.25
2022-09-27T23:28:45.876Z,96319.03
2022-09-27T23:31:15.504Z,96318.25
2022-09-27T23:33:45.003Z,96308.66
2022-09-27T23:36:16.337Z,96301.19
2022-09-27T23:38:45.963Z,96307.19
2022-09-27T23:41:15.257Z,96306.91
2022-09-27T23:43:44.135Z,96308.72
2022-09-27T23:46:13.282Z,96319.81
2022-09-27T23:48:41.858Z,96323.50
2022-09-27T23:51:12.046Z,96326.16
2022-09-27T23:53:41.768Z,96325.22
2022-09-27T23:56:12.394Z,96313.97
2022-09-27T23:58:42.228Z,96319.63
